Terminal Aerodrome Forecast
Issued by NWS

Home | Current Version | Previous Version | Text Only | Print | Product List | Glossary On
Versions: 1 2 3 4 5 6 7 8 9 10 11 12 13 14 15 16 17 18
000
FTUS46 KEKA 282326
TAFCEC
TAF
KCEC 282326Z 2900/2924 33019G31KT P6SM SKC
     FM290300 34012KT P6SM SCT020
     FM290600 35009KT P6SM FEW012 BKN020
     FM291100 02005KT 6SM BR SCT010 OVC020
     FM291600 35009KT P6SM SCT050=

USA.gov is the U.S. government's official web portal to all federal, state and local government web resources and services.